sensor_id;sensor_type;location;lat;lon;timestamp;P1;durP1;ratioP1;P2;durP2;ratioP2
80195;SDS011;69516;42.050;21.516;2023-09-19T00:00:45;15.27;;;8.85;;
80195;SDS011;69516;42.050;21.516;2023-09-19T00:03:12;14.48;;;9.57;;
80195;SDS011;69516;42.050;21.516;2023-09-19T00:05:38;14.20;;;9.63;;
80195;SDS011;69516;42.050;21.516;2023-09-19T00:08:04;15.40;;;9.40;;
80195;SDS011;69516;42.050;21.516;2023-09-19T00:10:32;15.75;;;9.77;;
80195;SDS011;69516;42.050;21.516;2023-09-19T00:13:02;14.02;;;9.80;;
80195;SDS011;69516;42.050;21.516;2023-09-19T00:15:36;15.40;;;9.25;;
80195;SDS011;69516;42.050;21.516;2023-09-19T00:18:03;15.18;;;9.82;;
80195;SDS011;69516;42.050;21.516;2023-09-19T00:20:35;15.40;;;10.02;;
80195;SDS011;69516;42.050;21.516;2023-09-19T00:23:01;15.02;;;10.18;;
80195;SDS011;69516;42.050;21.516;2023-09-19T00:25:29;14.77;;;9.77;;
80195;SDS011;69516;42.050;21.516;2023-09-19T00:27:57;12.95;;;9.98;;
80195;SDS011;69516;42.050;21.516;2023-09-19T00:30:23;15.27;;;9.82;;
80195;SDS011;69516;42.050;21.516;2023-09-19T00:32:50;15.80;;;9.70;;
80195;SDS011;69516;42.050;21.516;2023-09-19T00:35:20;15.77;;;9.85;;
80195;SDS011;69516;42.050;21.516;2023-09-19T00:37:49;17.83;;;10.60;;
80195;SDS011;69516;42.050;21.516;2023-09-19T00:40:16;16.77;;;9.68;;
80195;SDS011;69516;42.050;21.516;2023-09-19T00:42:43;17.27;;;10.32;;
80195;SDS011;69516;42.050;21.516;2023-09-19T00:45:09;14.05;;;10.13;;
80195;SDS011;69516;42.050;21.516;2023-09-19T00:47:37;14.25;;;10.02;;
80195;SDS011;69516;42.050;21.516;2023-09-19T00:50:04;16.33;;;10.93;;
80195;SDS011;69516;42.050;21.516;2023-09-19T00:52:33;16.83;;;10.63;;
80195;SDS011;69516;42.050;21.516;2023-09-19T00:55:02;21.08;;;10.90;;
80195;SDS011;69516;42.050;21.516;2023-09-19T00:57:28;15.68;;;10.20;;
80195;SDS011;69516;42.050;21.516;2023-09-19T00:59:58;16.67;;;9.90;;
80195;SDS011;69516;42.050;21.516;2023-09-19T01:02:25;14.90;;;10.70;;
80195;SDS011;69516;42.050;21.516;2023-09-19T01:04:54;14.82;;;9.95;;
80195;SDS011;69516;42.050;21.516;2023-09-19T01:07:20;15.95;;;10.82;;
80195;SDS011;69516;42.050;21.516;2023-09-19T01:09:48;15.75;;;10.57;;
80195;SDS011;69516;42.050;21.516;2023-09-19T01:12:16;16.70;;;10.63;;
80195;SDS011;69516;42.050;21.516;2023-09-19T01:17:20;15.68;;;10.57;;
80195;SDS011;69516;42.050;21.516;2023-09-19T01:22:26;16.38;;;10.65;;
80195;SDS011;69516;42.050;21.516;2023-09-19T01:30:17;14.25;;;10.65;;
80195;SDS011;69516;42.050;21.516;2023-09-19T01:32:47;16.58;;;11.00;;
80195;SDS011;69516;42.050;21.516;2023-09-19T01:35:13;16.30;;;10.88;;
80195;SDS011;69516;42.050;21.516;2023-09-19T01:37:39;16.70;;;11.00;;
80195;SDS011;69516;42.050;21.516;2023-09-19T01:40:09;15.00;;;10.80;;
80195;SDS011;69516;42.050;21.516;2023-09-19T01:47:50;17.40;;;11.55;;
80195;SDS011;69516;42.050;21.516;2023-09-19T01:50:34;17.50;;;11.68;;
80195;SDS011;69516;42.050;21.516;2023-09-19T01:55:53;14.90;;;11.02;;
80195;SDS011;69516;42.050;21.516;2023-09-19T02:00:47;18.20;;;11.43;;
80195;SDS011;69516;42.050;21.516;2023-09-19T02:03:15;17.88;;;11.32;;
80195;SDS011;69516;42.050;21.516;2023-09-19T02:05:46;17.63;;;10.55;;
80195;SDS011;69516;42.050;21.516;2023-09-19T02:08:16;18.02;;;12.45;;
80195;SDS011;69516;42.050;21.516;2023-09-19T02:10:43;16.08;;;10.98;;
80195;SDS011;69516;42.050;21.516;2023-09-19T02:13:14;15.95;;;11.55;;
80195;SDS011;69516;42.050;21.516;2023-09-19T02:15:42;16.25;;;11.20;;
80195;SDS011;69516;42.050;21.516;2023-09-19T02:18:09;16.20;;;11.40;;
80195;SDS011;69516;42.050;21.516;2023-09-19T02:20:36;17.30;;;11.25;;
80195;SDS011;69516;42.050;21.516;2023-09-19T02:23:03;16.50;;;11.35;;
80195;SDS011;69516;42.050;21.516;2023-09-19T02:25:29;15.50;;;10.85;;
80195;SDS011;69516;42.050;21.516;2023-09-19T02:27:56;19.52;;;13.27;;
80195;SDS011;69516;42.050;21.516;2023-09-19T02:30:28;18.90;;;12.10;;
80195;SDS011;69516;42.050;21.516;2023-09-19T02:32:54;22.63;;;12.88;;
80195;SDS011;69516;42.050;21.516;2023-09-19T02:35:20;16.98;;;12.35;;
80195;SDS011;69516;42.050;21.516;2023-09-19T02:37:48;20.10;;;12.60;;
80195;SDS011;69516;42.050;21.516;2023-09-19T02:40:14;19.83;;;12.93;;
80195;SDS011;69516;42.050;21.516;2023-09-19T02:42:44;19.30;;;12.52;;
80195;SDS011;69516;42.050;21.516;2023-09-19T02:45:12;19.08;;;12.73;;
80195;SDS011;69516;42.050;21.516;2023-09-19T02:47:40;18.85;;;12.57;;
80195;SDS011;69516;42.050;21.516;2023-09-19T02:50:06;18.85;;;12.55;;
80195;SDS011;69516;42.050;21.516;2023-09-19T02:52:33;17.42;;;12.48;;
80195;SDS011;69516;42.050;21.516;2023-09-19T02:54:59;20.98;;;12.65;;
80195;SDS011;69516;42.050;21.516;2023-09-19T02:57:26;19.05;;;12.02;;
80195;SDS011;69516;42.050;21.516;2023-09-19T02:59:52;22.85;;;14.07;;
80195;SDS011;69516;42.050;21.516;2023-09-19T03:02:18;20.77;;;13.48;;
80195;SDS011;69516;42.050;21.516;2023-09-19T03:04:45;17.67;;;12.23;;
80195;SDS011;69516;42.050;21.516;2023-09-19T03:07:12;21.25;;;13.82;;
80195;SDS011;69516;42.050;21.516;2023-09-19T03:09:38;21.55;;;14.40;;
80195;SDS011;69516;42.050;21.516;2023-09-19T03:12:04;20.52;;;14.60;;
80195;SDS011;69516;42.050;21.516;2023-09-19T03:14:31;22.73;;;15.40;;
80195;SDS011;69516;42.050;21.516;2023-09-19T03:17:00;24.73;;;13.95;;
80195;SDS011;69516;42.050;21.516;2023-09-19T03:19:29;22.45;;;15.15;;
80195;SDS011;69516;42.050;21.516;2023-09-19T03:21:58;20.75;;;14.05;;
80195;SDS011;69516;42.050;21.516;2023-09-19T03:24:24;23.80;;;13.65;;
80195;SDS011;69516;42.050;21.516;2023-09-19T03:26:51;20.40;;;13.57;;
80195;SDS011;69516;42.050;21.516;2023-09-19T03:29:17;18.88;;;13.85;;
80195;SDS011;69516;42.050;21.516;2023-09-19T03:31:43;21.58;;;14.15;;
80195;SDS011;69516;42.050;21.516;2023-09-19T03:34:10;21.92;;;14.23;;
80195;SDS011;69516;42.050;21.516;2023-09-19T03:36:36;21.38;;;15.15;;
80195;SDS011;69516;42.050;21.516;2023-09-19T03:39:03;22.98;;;14.93;;
80195;SDS011;69516;42.050;21.516;2023-09-19T03:41:32;21.13;;;14.35;;
80195;SDS011;69516;42.050;21.516;2023-09-19T03:44:01;21.35;;;14.52;;
80195;SDS011;69516;42.050;21.516;2023-09-19T03:46:27;22.38;;;14.45;;
80195;SDS011;69516;42.050;21.516;2023-09-19T03:48:55;24.95;;;15.23;;
80195;SDS011;69516;42.050;21.516;2023-09-19T03:51:21;20.55;;;14.18;;
80195;SDS011;69516;42.050;21.516;2023-09-19T03:53:47;21.40;;;14.48;;
80195;SDS011;69516;42.050;21.516;2023-09-19T03:56:18;22.65;;;15.10;;
80195;SDS011;69516;42.050;21.516;2023-09-19T03:58:44;28.33;;;16.52;;
80195;SDS011;69516;42.050;21.516;2023-09-19T04:01:10;24.48;;;15.02;;
80195;SDS011;69516;42.050;21.516;2023-09-19T04:03:38;24.15;;;14.95;;
80195;SDS011;69516;42.050;21.516;2023-09-19T04:06:13;22.70;;;14.27;;
80195;SDS011;69516;42.050;21.516;2023-09-19T04:08:40;24.17;;;15.30;;
80195;SDS011;69516;42.050;21.516;2023-09-19T04:11:06;21.10;;;15.20;;
80195;SDS011;69516;42.050;21.516;2023-09-19T04:13:32;23.40;;;15.43;;
80195;SDS011;69516;42.050;21.516;2023-09-19T04:15:58;21.70;;;15.10;;
80195;SDS011;69516;42.050;21.516;2023-09-19T04:18:25;23.15;;;16.52;;
80195;SDS011;69516;42.050;21.516;2023-09-19T04:20:51;21.77;;;14.82;;
80195;SDS011;69516;42.050;21.516;2023-09-19T04:23:17;26.02;;;15.48;;
80195;SDS011;69516;42.050;21.516;2023-09-19T04:25:45;25.33;;;15.32;;
80195;SDS011;69516;42.050;21.516;2023-09-19T04:28:11;22.83;;;15.70;;
80195;SDS011;69516;42.050;21.516;2023-09-19T04:30:37;28.67;;;15.88;;
80195;SDS011;69516;42.050;21.516;2023-09-19T04:33:07;23.70;;;15.65;;
80195;SDS011;69516;42.050;21.516;2023-09-19T04:35:33;23.40;;;15.60;;
80195;SDS011;69516;42.050;21.516;2023-09-19T04:38:00;30.85;;;16.08;;
80195;SDS011;69516;42.050;21.516;2023-09-19T04:40:26;22.55;;;15.20;;
80195;SDS011;69516;42.050;21.516;2023-09-19T04:42:55;23.10;;;15.50;;
80195;SDS011;69516;42.050;21.516;2023-09-19T04:45:25;22.98;;;15.48;;
80195;SDS011;69516;42.050;21.516;2023-09-19T04:47:51;23.73;;;14.60;;
80195;SDS011;69516;42.050;21.516;2023-09-19T04:50:18;23.05;;;15.73;;
80195;SDS011;69516;42.050;21.516;2023-09-19T04:52:46;28.35;;;17.35;;
80195;SDS011;69516;42.050;21.516;2023-09-19T04:55:16;28.83;;;17.40;;
80195;SDS011;69516;42.050;21.516;2023-09-19T04:57:42;27.88;;;16.33;;
80195;SDS011;69516;42.050;21.516;2023-09-19T05:00:10;22.33;;;15.02;;
80195;SDS011;69516;42.050;21.516;2023-09-19T05:02:38;22.52;;;15.05;;
80195;SDS011;69516;42.050;21.516;2023-09-19T05:05:05;22.05;;;13.93;;
80195;SDS011;69516;42.050;21.516;2023-09-19T05:07:32;21.48;;;14.45;;
80195;SDS011;69516;42.050;21.516;2023-09-19T05:09:59;26.13;;;15.05;;
80195;SDS011;69516;42.050;21.516;2023-09-19T05:12:28;25.33;;;16.10;;
80195;SDS011;69516;42.050;21.516;2023-09-19T05:14:54;25.30;;;15.48;;
80195;SDS011;69516;42.050;21.516;2023-09-19T05:17:21;22.85;;;14.80;;
80195;SDS011;69516;42.050;21.516;2023-09-19T05:19:47;22.10;;;14.98;;
80195;SDS011;69516;42.050;21.516;2023-09-19T05:22:13;22.02;;;14.27;;
80195;SDS011;69516;42.050;21.516;2023-09-19T05:24:40;25.20;;;14.75;;
80195;SDS011;69516;42.050;21.516;2023-09-19T05:27:06;27.77;;;17.25;;
80195;SDS011;69516;42.050;21.516;2023-09-19T05:29:33;26.73;;;17.98;;
80195;SDS011;69516;42.050;21.516;2023-09-19T05:31:59;25.35;;;15.77;;
80195;SDS011;69516;42.050;21.516;2023-09-19T05:34:26;24.42;;;14.85;;
80195;SDS011;69516;42.050;21.516;2023-09-19T05:36:55;24.67;;;16.92;;
80195;SDS011;69516;42.050;21.516;2023-09-19T05:39:21;29.77;;;18.33;;
80195;SDS011;69516;42.050;21.516;2023-09-19T05:41:48;30.20;;;18.75;;
80195;SDS011;69516;42.050;21.516;2023-09-19T05:44:14;38.97;;;23.73;;
80195;SDS011;69516;42.050;21.516;2023-09-19T05:46:40;33.92;;;20.40;;
80195;SDS011;69516;42.050;21.516;2023-09-19T05:49:07;34.28;;;20.35;;
80195;SDS011;69516;42.050;21.516;2023-09-19T05:51:33;25.60;;;17.02;;
80195;SDS011;69516;42.050;21.516;2023-09-19T05:54:00;27.83;;;17.27;;
80195;SDS011;69516;42.050;21.516;2023-09-19T05:56:27;26.45;;;17.27;;
80195;SDS011;69516;42.050;21.516;2023-09-19T05:58:53;25.35;;;15.73;;
80195;SDS011;69516;42.050;21.516;2023-09-19T06:01:19;24.02;;;15.15;;
80195;SDS011;69516;42.050;21.516;2023-09-19T06:03:45;25.30;;;15.90;;
80195;SDS011;69516;42.050;21.516;2023-09-19T06:06:11;21.27;;;14.65;;
80195;SDS011;69516;42.050;21.516;2023-09-19T06:08:38;21.90;;;15.10;;
80195;SDS011;69516;42.050;21.516;2023-09-19T06:11:04;22.10;;;14.05;;
80195;SDS011;69516;42.050;21.516;2023-09-19T06:13:34;18.92;;;13.32;;
80195;SDS011;69516;42.050;21.516;2023-09-19T06:16:00;20.13;;;14.05;;
80195;SDS011;69516;42.050;21.516;2023-09-19T06:18:30;20.88;;;14.15;;
80195;SDS011;69516;42.050;21.516;2023-09-19T06:20:59;22.65;;;14.10;;
80195;SDS011;69516;42.050;21.516;2023-09-19T06:23:25;22.38;;;13.98;;
80195;SDS011;69516;42.050;21.516;2023-09-19T06:25:54;19.77;;;13.85;;
80195;SDS011;69516;42.050;21.516;2023-09-19T06:28:21;20.40;;;14.15;;
80195;SDS011;69516;42.050;21.516;2023-09-19T06:30:50;19.58;;;13.35;;
80195;SDS011;69516;42.050;21.516;2023-09-19T06:33:17;20.83;;;14.27;;
80195;SDS011;69516;42.050;21.516;2023-09-19T06:35:45;22.38;;;15.45;;
80195;SDS011;69516;42.050;21.516;2023-09-19T06:38:12;22.15;;;14.27;;
80195;SDS011;69516;42.050;21.516;2023-09-19T06:40:41;18.95;;;14.05;;
80195;SDS011;69516;42.050;21.516;2023-09-19T06:43:09;21.00;;;13.50;;
80195;SDS011;69516;42.050;21.516;2023-09-19T06:45:35;22.15;;;15.20;;
80195;SDS011;69516;42.050;21.516;2023-09-19T06:48:01;21.80;;;15.10;;
80195;SDS011;69516;42.050;21.516;2023-09-19T06:50:28;22.95;;;15.52;;
80195;SDS011;69516;42.050;21.516;2023-09-19T06:52:55;24.02;;;15.35;;
80195;SDS011;69516;42.050;21.516;2023-09-19T06:55:24;24.13;;;15.68;;
80195;SDS011;69516;42.050;21.516;2023-09-19T06:57:52;25.60;;;15.60;;
80195;SDS011;69516;42.050;21.516;2023-09-19T07:00:22;24.90;;;15.18;;
80195;SDS011;69516;42.050;21.516;2023-09-19T07:02:55;21.58;;;14.73;;
80195;SDS011;69516;42.050;21.516;2023-09-19T07:05:22;22.23;;;13.98;;
80195;SDS011;69516;42.050;21.516;2023-09-19T07:07:48;24.00;;;15.65;;
80195;SDS011;69516;42.050;21.516;2023-09-19T07:10:14;28.02;;;15.02;;
80195;SDS011;69516;42.050;21.516;2023-09-19T07:12:43;24.92;;;15.68;;
80195;SDS011;69516;42.050;21.516;2023-09-19T07:15:10;27.92;;;15.70;;
80195;SDS011;69516;42.050;21.516;2023-09-19T07:17:36;19.50;;;13.98;;
80195;SDS011;69516;42.050;21.516;2023-09-19T07:20:07;20.73;;;13.07;;
80195;SDS011;69516;42.050;21.516;2023-09-19T07:22:34;19.60;;;13.32;;
80195;SDS011;69516;42.050;21.516;2023-09-19T07:25:01;19.52;;;12.10;;
80195;SDS011;69516;42.050;21.516;2023-09-19T07:27:28;16.30;;;11.77;;
80195;SDS011;69516;42.050;21.516;2023-09-19T07:29:54;18.83;;;11.02;;
80195;SDS011;69516;42.050;21.516;2023-09-19T07:32:21;19.33;;;10.90;;
80195;SDS011;69516;42.050;21.516;2023-09-19T07:34:47;16.83;;;9.43;;
80195;SDS011;69516;42.050;21.516;2023-09-19T07:37:13;16.88;;;9.18;;
80195;SDS011;69516;42.050;21.516;2023-09-19T07:39:40;14.18;;;9.27;;
80195;SDS011;69516;42.050;21.516;2023-09-19T07:42:07;15.55;;;9.70;;
80195;SDS011;69516;42.050;21.516;2023-09-19T07:44:34;14.60;;;8.27;;
80195;SDS011;69516;42.050;21.516;2023-09-19T07:47:01;12.80;;;7.75;;
80195;SDS011;69516;42.050;21.516;2023-09-19T07:49:28;13.32;;;8.13;;
80195;SDS011;69516;42.050;21.516;2023-09-19T07:51:54;12.25;;;8.02;;
80195;SDS011;69516;42.050;21.516;2023-09-19T07:54:22;13.10;;;8.50;;
80195;SDS011;69516;42.050;21.516;2023-09-19T07:56:48;13.82;;;7.57;;
80195;SDS011;69516;42.050;21.516;2023-09-19T07:59:14;10.98;;;7.35;;
80195;SDS011;69516;42.050;21.516;2023-09-19T08:01:41;12.93;;;7.13;;
80195;SDS011;69516;42.050;21.516;2023-09-19T08:04:09;11.15;;;7.82;;
80195;SDS011;69516;42.050;21.516;2023-09-19T08:06:35;15.73;;;7.07;;
80195;SDS011;69516;42.050;21.516;2023-09-19T08:09:03;11.25;;;7.18;;
80195;SDS011;69516;42.050;21.516;2023-09-19T08:11:33;11.43;;;6.63;;
80195;SDS011;69516;42.050;21.516;2023-09-19T08:14:00;12.07;;;7.55;;
80195;SDS011;69516;42.050;21.516;2023-09-19T08:16:26;11.10;;;7.53;;
80195;SDS011;69516;42.050;21.516;2023-09-19T08:18:52;12.75;;;8.40;;
80195;SDS011;69516;42.050;21.516;2023-09-19T08:21:21;12.55;;;7.90;;
80195;SDS011;69516;42.050;21.516;2023-09-19T08:23:47;11.63;;;8.23;;
80195;SDS011;69516;42.050;21.516;2023-09-19T08:26:13;14.63;;;7.70;;
80195;SDS011;69516;42.050;21.516;2023-09-19T08:28:39;13.65;;;8.20;;
80195;SDS011;69516;42.050;21.516;2023-09-19T08:31:08;12.02;;;7.30;;
80195;SDS011;69516;42.050;21.516;2023-09-19T08:33:35;12.95;;;7.38;;
80195;SDS011;69516;42.050;21.516;2023-09-19T08:36:01;12.52;;;6.85;;
80195;SDS011;69516;42.050;21.516;2023-09-19T08:38:31;10.65;;;7.30;;
80195;SDS011;69516;42.050;21.516;2023-09-19T08:40:58;14.02;;;8.00;;
80195;SDS011;69516;42.050;21.516;2023-09-19T08:43:27;11.27;;;7.60;;
80195;SDS011;69516;42.050;21.516;2023-09-19T08:46:07;13.95;;;8.07;;
80195;SDS011;69516;42.050;21.516;2023-09-19T08:48:38;13.02;;;8.65;;
80195;SDS011;69516;42.050;21.516;2023-09-19T08:51:10;11.88;;;7.55;;
80195;SDS011;69516;42.050;21.516;2023-09-19T08:56:14;12.35;;;7.72;;
80195;SDS011;69516;42.050;21.516;2023-09-19T08:58:50;13.18;;;7.75;;
80195;SDS011;69516;42.050;21.516;2023-09-19T09:01:18;13.00;;;8.05;;
80195;SDS011;69516;42.050;21.516;2023-09-19T09:03:50;10.70;;;7.20;;
80195;SDS011;69516;42.050;21.516;2023-09-19T09:06:17;11.63;;;8.50;;
80195;SDS011;69516;42.050;21.516;2023-09-19T09:08:43;14.02;;;8.75;;
80195;SDS011;69516;42.050;21.516;2023-09-19T09:11:10;12.82;;;7.47;;
80195;SDS011;69516;42.050;21.516;2023-09-19T09:13:37;13.80;;;8.18;;
80195;SDS011;69516;42.050;21.516;2023-09-19T09:16:04;12.82;;;8.50;;
80195;SDS011;69516;42.050;21.516;2023-09-19T09:18:30;14.20;;;8.13;;
80195;SDS011;69516;42.050;21.516;2023-09-19T09:20:56;14.95;;;9.02;;
80195;SDS011;69516;42.050;21.516;2023-09-19T09:23:22;13.93;;;8.55;;
80195;SDS011;69516;42.050;21.516;2023-09-19T09:25:53;14.73;;;7.63;;
80195;SDS011;69516;42.050;21.516;2023-09-19T09:28:26;11.85;;;8.07;;
80195;SDS011;69516;42.050;21.516;2023-09-19T09:30:53;12.55;;;7.53;;
80195;SDS011;69516;42.050;21.516;2023-09-19T09:33:20;15.60;;;8.45;;
80195;SDS011;69516;42.050;21.516;2023-09-19T09:35:47;15.57;;;8.65;;
80195;SDS011;69516;42.050;21.516;2023-09-19T09:38:17;11.70;;;7.72;;
80195;SDS011;69516;42.050;21.516;2023-09-19T09:40:50;11.90;;;8.45;;
80195;SDS011;69516;42.050;21.516;2023-09-19T09:43:36;11.50;;;7.28;;
80195;SDS011;69516;42.050;21.516;2023-09-19T09:48:48;11.23;;;8.45;;
80195;SDS011;69516;42.050;21.516;2023-09-19T09:51:41;12.80;;;7.63;;
80195;SDS011;69516;42.050;21.516;2023-09-19T09:54:22;13.48;;;7.95;;
80195;SDS011;69516;42.050;21.516;2023-09-19T10:02:29;10.95;;;7.97;;
80195;SDS011;69516;42.050;21.516;2023-09-19T10:05:22;12.57;;;8.20;;
80195;SDS011;69516;42.050;21.516;2023-09-19T10:08:11;13.35;;;8.30;;
80195;SDS011;69516;42.050;21.516;2023-09-19T10:10:39;13.00;;;7.72;;
80195;SDS011;69516;42.050;21.516;2023-09-19T10:13:09;13.85;;;8.35;;
80195;SDS011;69516;42.050;21.516;2023-09-19T10:15:39;13.82;;;8.00;;
80195;SDS011;69516;42.050;21.516;2023-09-19T10:18:15;12.18;;;7.78;;
80195;SDS011;69516;42.050;21.516;2023-09-19T10:20:44;12.65;;;7.70;;
80195;SDS011;69516;42.050;21.516;2023-09-19T10:23:11;15.70;;;7.65;;
80195;SDS011;69516;42.050;21.516;2023-09-19T10:25:42;10.77;;;7.72;;
80195;SDS011;69516;42.050;21.516;2023-09-19T10:28:12;13.32;;;7.97;;
80195;SDS011;69516;42.050;21.516;2023-09-19T10:33:09;12.55;;;8.15;;
80195;SDS011;69516;42.050;21.516;2023-09-19T10:35:37;13.95;;;8.52;;
80195;SDS011;69516;42.050;21.516;2023-09-19T10:38:05;10.82;;;8.00;;
80195;SDS011;69516;42.050;21.516;2023-09-19T10:40:33;19.02;;;8.82;;
80195;SDS011;69516;42.050;21.516;2023-09-19T10:43:04;19.55;;;8.40;;
80195;SDS011;69516;42.050;21.516;2023-09-19T10:45:34;11.80;;;7.53;;
80195;SDS011;69516;42.050;21.516;2023-09-19T10:48:06;14.93;;;8.13;;
80195;SDS011;69516;42.050;21.516;2023-09-19T10:50:43;23.65;;;9.00;;
80195;SDS011;69516;42.050;21.516;2023-09-19T10:53:11;14.52;;;8.68;;
80195;SDS011;69516;42.050;21.516;2023-09-19T10:55:37;16.88;;;8.90;;
80195;SDS011;69516;42.050;21.516;2023-09-19T10:58:04;12.73;;;8.38;;
80195;SDS011;69516;42.050;21.516;2023-09-19T11:00:50;13.18;;;8.60;;
80195;SDS011;69516;42.050;21.516;2023-09-19T11:03:17;14.57;;;8.82;;
80195;SDS011;69516;42.050;21.516;2023-09-19T11:06:04;14.27;;;8.32;;
80195;SDS011;69516;42.050;21.516;2023-09-19T11:08:53;13.75;;;9.15;;
80195;SDS011;69516;42.050;21.516;2023-09-19T11:14:13;10.45;;;7.95;;
80195;SDS011;69516;42.050;21.516;2023-09-19T11:16:41;11.35;;;8.25;;
80195;SDS011;69516;42.050;21.516;2023-09-19T11:19:57;12.77;;;8.32;;
80195;SDS011;69516;42.050;21.516;2023-09-19T11:22:13;10.80;;;7.95;;
80195;SDS011;69516;42.050;21.516;2023-09-19T11:24:39;11.23;;;8.20;;
80195;SDS011;69516;42.050;21.516;2023-09-19T11:27:10;10.95;;;7.88;;
80195;SDS011;69516;42.050;21.516;2023-09-19T11:29:39;11.50;;;8.15;;
80195;SDS011;69516;42.050;21.516;2023-09-19T11:32:05;12.07;;;8.10;;
80195;SDS011;69516;42.050;21.516;2023-09-19T11:39:38;14.43;;;8.15;;
80195;SDS011;69516;42.050;21.516;2023-09-19T11:45:04;11.98;;;7.72;;
80195;SDS011;69516;42.050;21.516;2023-09-19T11:47:30;13.05;;;8.40;;
80195;SDS011;69516;42.050;21.516;2023-09-19T11:49:57;13.70;;;7.35;;
80195;SDS011;69516;42.050;21.516;2023-09-19T11:52:26;10.63;;;6.90;;
80195;SDS011;69516;42.050;21.516;2023-09-19T11:54:59;10.68;;;7.50;;
80195;SDS011;69516;42.050;21.516;2023-09-19T11:57:28;12.90;;;7.18;;
80195;SDS011;69516;42.050;21.516;2023-09-19T11:59:55;14.80;;;7.50;;
80195;SDS011;69516;42.050;21.516;2023-09-19T12:02:37;10.50;;;7.60;;
80195;SDS011;69516;42.050;21.516;2023-09-19T12:05:06;10.35;;;7.28;;
80195;SDS011;69516;42.050;21.516;2023-09-19T12:07:32;10.57;;;6.93;;
80195;SDS011;69516;42.050;21.516;2023-09-19T12:10:08;10.68;;;6.78;;
80195;SDS011;69516;42.050;21.516;2023-09-19T12:12:36;10.23;;;7.15;;
80195;SDS011;69516;42.050;21.516;2023-09-19T12:15:02;12.13;;;6.75;;
80195;SDS011;69516;42.050;21.516;2023-09-19T12:17:35;11.63;;;6.70;;
80195;SDS011;69516;42.050;21.516;2023-09-19T12:20:02;10.73;;;6.80;;
80195;SDS011;69516;42.050;21.516;2023-09-19T12:22:42;9.50;;;6.75;;
80195;SDS011;69516;42.050;21.516;2023-09-19T12:25:09;10.38;;;6.78;;
80195;SDS011;69516;42.050;21.516;2023-09-19T12:27:43;12.55;;;7.15;;
80195;SDS011;69516;42.050;21.516;2023-09-19T12:30:12;9.48;;;6.72;;
80195;SDS011;69516;42.050;21.516;2023-09-19T12:32:43;13.65;;;7.35;;
80195;SDS011;69516;42.050;21.516;2023-09-19T12:35:09;10.18;;;7.35;;
80195;SDS011;69516;42.050;21.516;2023-09-19T12:37:36;11.38;;;6.95;;
80195;SDS011;69516;42.050;21.516;2023-09-19T12:40:06;11.82;;;6.85;;
80195;SDS011;69516;42.050;21.516;2023-09-19T12:42:42;11.52;;;7.22;;
80195;SDS011;69516;42.050;21.516;2023-09-19T12:45:09;9.90;;;7.20;;
80195;SDS011;69516;42.050;21.516;2023-09-19T12:47:38;10.60;;;6.82;;
80195;SDS011;69516;42.050;21.516;2023-09-19T12:52:47;11.15;;;7.40;;
80195;SDS011;69516;42.050;21.516;2023-09-19T12:55:28;14.48;;;7.40;;
80195;SDS011;69516;42.050;21.516;2023-09-19T13:00:43;9.93;;;7.10;;
80195;SDS011;69516;42.050;21.516;2023-09-19T13:05:50;11.23;;;6.88;;
80195;SDS011;69516;42.050;21.516;2023-09-19T13:08:25;11.75;;;7.40;;
80195;SDS011;69516;42.050;21.516;2023-09-19T13:11:08;11.90;;;7.10;;
80195;SDS011;69516;42.050;21.516;2023-09-19T13:16:26;10.18;;;7.22;;
80195;SDS011;69516;42.050;21.516;2023-09-19T13:18:55;10.38;;;7.55;;
80195;SDS011;69516;42.050;21.516;2023-09-19T13:21:29;12.05;;;7.20;;
80195;SDS011;69516;42.050;21.516;2023-09-19T13:27:05;10.02;;;6.72;;
80195;SDS011;69516;42.050;21.516;2023-09-19T13:29:32;11.13;;;6.85;;
80195;SDS011;69516;42.050;21.516;2023-09-19T13:31:58;14.05;;;7.10;;
80195;SDS011;69516;42.050;21.516;2023-09-19T13:34:24;11.00;;;7.57;;
80195;SDS011;69516;42.050;21.516;2023-09-19T13:36:51;11.63;;;6.95;;
80195;SDS011;69516;42.050;21.516;2023-09-19T13:39:18;10.30;;;7.13;;
80195;SDS011;69516;42.050;21.516;2023-09-19T13:41:44;11.73;;;7.57;;
80195;SDS011;69516;42.050;21.516;2023-09-19T13:44:11;12.25;;;7.72;;
80195;SDS011;69516;42.050;21.516;2023-09-19T13:46:39;12.20;;;6.93;;
80195;SDS011;69516;42.050;21.516;2023-09-19T13:49:05;11.02;;;7.28;;
80195;SDS011;69516;42.050;21.516;2023-09-19T13:51:32;11.15;;;8.07;;
80195;SDS011;69516;42.050;21.516;2023-09-19T13:53:58;12.02;;;7.10;;
80195;SDS011;69516;42.050;21.516;2023-09-19T13:56:27;10.02;;;6.93;;
80195;SDS011;69516;42.050;21.516;2023-09-19T13:58:53;14.18;;;7.22;;
80195;SDS011;69516;42.050;21.516;2023-09-19T14:01:20;10.40;;;7.22;;
80195;SDS011;69516;42.050;21.516;2023-09-19T14:03:46;9.25;;;6.80;;
80195;SDS011;69516;42.050;21.516;2023-09-19T14:06:16;12.65;;;6.80;;
80195;SDS011;69516;42.050;21.516;2023-09-19T14:08:43;13.57;;;7.47;;
80195;SDS011;69516;42.050;21.516;2023-09-19T14:11:12;14.05;;;7.30;;
80195;SDS011;69516;42.050;21.516;2023-09-19T14:13:42;12.93;;;7.07;;
80195;SDS011;69516;42.050;21.516;2023-09-19T14:16:13;11.02;;;7.97;;
80195;SDS011;69516;42.050;21.516;2023-09-19T14:18:39;13.63;;;8.18;;
80195;SDS011;69516;42.050;21.516;2023-09-19T14:21:06;12.05;;;7.93;;
80195;SDS011;69516;42.050;21.516;2023-09-19T14:23:36;10.40;;;7.47;;
80195;SDS011;69516;42.050;21.516;2023-09-19T14:26:03;10.23;;;7.22;;
80195;SDS011;69516;42.050;21.516;2023-09-19T14:28:30;11.07;;;7.15;;
80195;SDS011;69516;42.050;21.516;2023-09-19T14:31:09;14.10;;;7.50;;
80195;SDS011;69516;42.050;21.516;2023-09-19T14:33:35;10.35;;;7.25;;
80195;SDS011;69516;42.050;21.516;2023-09-19T14:36:06;11.32;;;7.88;;
80195;SDS011;69516;42.050;21.516;2023-09-19T14:38:34;10.55;;;7.53;;
80195;SDS011;69516;42.050;21.516;2023-09-19T14:41:04;11.48;;;7.55;;
80195;SDS011;69516;42.050;21.516;2023-09-19T14:43:30;12.38;;;7.35;;
80195;SDS011;69516;42.050;21.516;2023-09-19T14:45:57;10.55;;;7.97;;
80195;SDS011;69516;42.050;21.516;2023-09-19T14:48:28;13.20;;;7.15;;
80195;SDS011;69516;42.050;21.516;2023-09-19T14:50:54;13.48;;;7.88;;
80195;SDS011;69516;42.050;21.516;2023-09-19T14:56:24;12.05;;;7.70;;
80195;SDS011;69516;42.050;21.516;2023-09-19T14:58:50;11.15;;;8.10;;
80195;SDS011;69516;42.050;21.516;2023-09-19T15:01:16;14.95;;;7.88;;
80195;SDS011;69516;42.050;21.516;2023-09-19T15:03:42;13.77;;;7.80;;
80195;SDS011;69516;42.050;21.516;2023-09-19T15:06:09;12.88;;;8.88;;
80195;SDS011;69516;42.050;21.516;2023-09-19T15:08:39;15.27;;;7.40;;
80195;SDS011;69516;42.050;21.516;2023-09-19T15:11:06;13.50;;;8.05;;
80195;SDS011;69516;42.050;21.516;2023-09-19T15:13:32;13.32;;;8.27;;
80195;SDS011;69516;42.050;21.516;2023-09-19T15:15:59;12.50;;;8.52;;
80195;SDS011;69516;42.050;21.516;2023-09-19T15:18:26;12.35;;;8.60;;
80195;SDS011;69516;42.050;21.516;2023-09-19T15:20:52;13.38;;;8.50;;
80195;SDS011;69516;42.050;21.516;2023-09-19T15:23:19;13.60;;;9.23;;
80195;SDS011;69516;42.050;21.516;2023-09-19T15:25:49;12.95;;;9.18;;